EA3GYL La Torregassa ES current weather conditions

sailwx.info

Air temperature 13.9° C
Dewpoint 12.1° C

Last reported at 2015-May-06 03:40 UTC.
Time now 2015-May-06 05:25 UTC

Location: N 41°17' E 001°31'.
View on Google Maps.

See reports from other nearby stations

  
Tides and Currents Weather Stations Pressure Air Temp Water Temp Dewpoint Dewpoint Depression Visibility Wind Speed Wind Dir Waves Ship Positions
date/time (UTC)wind fromknots sea level pressurealtimeterstation pressurevisibilityair tempwater tempwave heightnotes
2015-May-06 04:50 15.0
2015-May-06 04:40 15.6
2015-May-06 04:30 352 0 gusting 1 15.6
2015-May-06 04:20 343 0 gusting 1 15.6
2015-May-06 04:10 338 0 gusting 1 15.6
2015-May-06 04:00 351 15.0
2015-May-06 03:50 13.9
2015-May-06 03:40 13.9
2015-May-06 03:30 14.4
2015-May-06 03:20 15.6
2015-May-06 03:10 326 16.1
2015-May-06 03:00 329 16.1
2015-May-06 02:50 335 0 gusting 1 16.1
2015-May-06 02:40 344 0 gusting 1 16.1
2015-May-06 02:30 346 16.1
2015-May-06 02:20 16.1
2015-May-06 02:10 16.1
2015-May-06 02:00 16.1
2015-May-06 01:50 351 0 gusting 1 16.1
2015-May-06 01:40 347 0 gusting 2 16.1
2015-May-06 01:30 340 0 gusting 1 16.1
2015-May-06 01:20 345 16.1
2015-May-06 01:10 16.1
2015-May-06 01:00 327 16.1
2015-May-06 00:50 16.1
2015-May-06 00:00 353 0 gusting 2 16.7
2015-May-05 23:50 343 16.7
2015-May-05 23:30 347 0 gusting 1 16.7
2015-May-05 23:20 339 0 gusting 2 16.7
2015-May-05 23:10 342 0 gusting 1 16.7
2015-May-05 22:50 17.2
2015-May-05 22:40 026 0 gusting 1 17.2
2015-May-05 22:30 027 0 gusting 2 17.2
2015-May-05 22:20 023 1 gusting 3 17.8
2015-May-05 22:10 038 2 gusting 4 17.8
2015-May-05 22:00 040 2 gusting 4 17.8
2015-May-05 21:50 040 1 gusting 5 17.2
2015-May-05 21:40 036 1 gusting 3 17.2
2015-May-05 21:30 036 1 gusting 3 17.2
2015-May-05 21:20 046 0 gusting 2 17.2
2015-May-05 21:10 042 0 gusting 2 17.2
2015-May-05 21:00 045 0 gusting 2 17.2
2015-May-05 20:50 053 0 gusting 1 17.2
2015-May-05 20:40 049 0 gusting 1 17.2
2015-May-05 20:30 17.2
2015-May-05 20:20 17.2
2015-May-05 20:10 071 17.8
2015-May-05 20:00 081 0 gusting 1 17.8
2015-May-05 19:50 095 0 gusting 1 17.8
2015-May-05 19:40 079 1 gusting 2 17.8
2015-May-05 19:30 072 0 gusting 3 17.8
2015-May-05 19:20 081 0 gusting 1 18.3
2015-May-05 19:10 074 18.3
2015-May-05 19:00 18.9
2015-May-05 18:50 18.9
2015-May-05 18:40 19.4
2015-May-05 18:30 19.4
2015-May-05 18:20 197 19.4
2015-May-05 18:10 176 0 gusting 1 18.9
2015-May-05 18:00 174 0 gusting 2 19.4
2015-May-05 15:00 167 2 gusting 5 22.8
2015-May-05 14:50 131 3 gusting 6 22.8
2015-May-05 14:30 142 3 gusting 7 23.3
2015-May-05 14:20 156 6 gusting 10 24.4
2015-May-05 14:10 153 6 gusting 13 25.0
2015-May-05 14:00 201 3 gusting 10 27.2
2015-May-05 13:50 241 4 gusting 9 27.8
2015-May-05 13:40 239 3 gusting 9 27.8
2015-May-05 13:30 254 3 gusting 12 27.8
2015-May-05 13:20 298 3 gusting 9 27.2
2015-May-05 13:10 289 3 gusting 6 27.2
2015-May-05 13:00 268 4 gusting 10 27.2
2015-May-05 12:50 313 3 gusting 8 27.2
2015-May-05 12:40 317 4 gusting 8 26.7
2015-May-05 12:30 289 6 gusting 13 26.7
2015-May-05 12:20 288 6 gusting 13 26.7
2015-May-05 12:10 289 6 gusting 12 26.1
2015-May-05 12:00 290 6 gusting 13 26.1
2015-May-05 11:50 304 6 gusting 13 26.1
2015-May-05 11:40 288 6 gusting 13 26.1
2015-May-05 11:30 290 7 gusting 13 25.6
2015-May-05 11:20 291 6 gusting 14 25.6
2015-May-05 11:10 296 6 gusting 15 25.0
2015-May-05 11:00 306 7 gusting 15 25.0
2015-May-05 10:50 293 7 gusting 14 24.4
2015-May-05 10:40 304 9 gusting 19 23.9
2015-May-05 10:30 295 8 gusting 19 23.9
2015-May-05 10:20 309 7 gusting 14 23.9
2015-May-05 10:10 303 7 gusting 18 23.9
2015-May-05 10:00 326 9 gusting 18 23.9
2015-May-05 09:50 313 10 gusting 21 23.9
2015-May-05 09:40 309 9 gusting 19 23.3
2015-May-05 09:30 305 10 gusting 18 23.3
2015-May-05 09:20 303 8 gusting 22 23.3
2015-May-05 09:10 311 8 gusting 19 23.3
2015-May-05 09:00 319 9 gusting 20 23.3
2015-May-05 08:50 317 11 gusting 17 23.9
2015-May-05 08:40 299 12 gusting 24 23.3
2015-May-05 08:30 304 10 gusting 21 23.3
2015-May-05 08:20 302 11 gusting 19 22.8
2015-May-05 08:10 302 9 gusting 24 23.3
2015-May-05 08:00 306 9 gusting 19 23.3
2015-May-05 07:50 303 7 gusting 18 22.8
2015-May-05 07:40 303 7 gusting 15 22.8
2015-May-05 07:30 301 9 gusting 18 22.8
2015-May-05 07:20 300 8 gusting 19 22.8
2015-May-05 07:10 292 9 gusting 19 23.3
2015-May-05 07:00 290 6 gusting 18 23.3
2015-May-05 06:50 290 6 gusting 12 23.3
2015-May-05 06:40 292 6 gusting 16 23.3
2015-May-05 06:30 285 2 gusting 12 22.2
2015-May-05 06:20 281 19.4
2015-May-05 06:10 17.8
2015-May-05 06:00 17.8
2015-May-05 05:50 17.8
2015-May-05 05:40 17.2
2015-May-05 05:30 17.2
2015-May-05 05:20 17.2
2015-May-05 05:10 16.7
2015-May-05 05:00 16.7
2015-May-05 04:50 16.7
2015-May-05 04:40 16.7
2015-May-05 04:30 16.7
2015-May-05 04:20 17.2
2015-May-05 04:10 17.2
2015-May-05 04:00 16.7
2015-May-05 03:50 16.7
2015-May-05 03:40 16.7
2015-May-05 03:30 16.7
2015-May-05 03:20 16.7
2015-May-05 03:10 16.7
2015-May-05 03:00 17.2
2015-May-05 02:50 357 0 gusting 0 17.2
2015-May-05 02:40 326 0 gusting 4 17.2
2015-May-05 02:30 267 0 gusting 1 17.2
2015-May-05 02:20 16.7
2015-May-05 02:10 16.7
2015-May-05 02:00 16.7
2015-May-05 01:50 16.7
2015-May-05 01:40 16.7
2015-May-05 01:30 17.2
2015-May-05 01:20 17.2
2015-May-05 01:10 281 17.2
2015-May-05 01:00 16.7
2015-May-05 00:50 16.7
2015-May-05 00:40 16.7
2015-May-05 00:30 16.7
2015-May-05 00:20 16.7
2015-May-05 00:10 16.7
2015-May-05 00:00 16.7
2015-May-04 23:50 16.7
2015-May-04 23:40 17.2
2015-May-04 23:30 17.2
2015-May-04 23:20 17.2
2015-May-04 23:10 17.2
2015-May-04 23:00 17.2
2015-May-04 22:50 17.2
2015-May-04 22:40 17.2
2015-May-04 22:30 17.2
2015-May-04 22:20 17.2
2015-May-04 22:10 17.2
2015-May-04 22:00 17.8
2015-May-04 21:50 18.3
2015-May-04 21:40 18.9
2015-May-04 21:30 18.9
2015-May-04 21:20 280 0 gusting 1 18.3
2015-May-04 21:10 280 0 gusting 1 18.3
2015-May-04 21:00 279 0 gusting 3 17.8
2015-May-04 20:50 18.3
2015-May-04 20:40 18.3
2015-May-04 20:30 17.8
2015-May-04 20:20 17.8
2015-May-04 20:10 17.8
2015-May-04 20:00 18.3
2015-May-04 19:50 18.3
2015-May-04 19:40 18.3
2015-May-04 19:30 18.3
2015-May-04 19:20 18.3
2015-May-04 19:10 18.3
2015-May-04 19:00 18.3
2015-May-04 18:50 18.3
2015-May-04 18:40 18.3
2015-May-04 18:30 18.9
2015-May-04 18:20 18.9
2015-May-04 18:10 18.9
2015-May-04 18:00 198 0 gusting 0 18.9
2015-May-04 17:50 136 19.4
2015-May-04 17:40 19.4
2015-May-04 17:30 20.0
2015-May-04 17:20 136 0 gusting 0 20.6
2015-May-04 17:10 135 0 gusting 2 21.1
2015-May-04 17:00 138 0 gusting 2 21.7
2015-May-04 16:50 22.2
2015-May-04 16:40 22.2
2015-May-04 16:30 22.2
2015-May-04 16:20 22.2
2015-May-04 16:10 22.2
2015-May-04 16:00 22.2
2015-May-04 15:50 22.2
2015-May-04 15:40 22.2
2015-May-04 15:30 22.2
2015-May-04 15:20 22.8
2015-May-04 15:10 131 22.2
2015-May-04 15:00 119 0 gusting 1 22.2
2015-May-04 14:50 133 0 gusting 2 22.2
2015-May-04 14:40 154 1 gusting 3 21.7
2015-May-04 14:30 135 0 gusting 4 21.7
2015-May-04 14:20 125 0 gusting 2 21.7
2015-May-04 14:10 171 0 gusting 2 21.7
2015-May-04 14:00 141 0 gusting 3 21.1
2015-May-04 13:50 196 1 gusting 3 21.7
2015-May-04 13:40 152 2 gusting 5 21.7
2015-May-04 13:30 146 2 gusting 6 21.7
2015-May-04 13:20 131 1 gusting 6 21.7
2015-May-04 13:10 167 2 gusting 3 22.2
2015-May-04 13:00 185 2 gusting 6 21.7
2015-May-04 12:50 156 2 gusting 5 22.2
2015-May-04 12:40 167 1 gusting 5 21.7
2015-May-04 12:30 213 1 gusting 3 22.2
2015-May-04 12:20 183 0 gusting 3 22.2
2015-May-04 12:10 176 2 gusting 6 21.7
2015-May-04 12:00 136 1 gusting 5 21.7
2015-May-04 11:50 162 1 gusting 4 21.7
2015-May-04 11:40 132 2 gusting 5 21.1
2015-May-04 11:30 145 1 gusting 4 21.7
2015-May-04 11:20 143 1 gusting 5 21.7
2015-May-04 11:10 153 2 gusting 4 21.1
2015-May-04 11:00 148 2 gusting 5 21.1
2015-May-04 10:50 152 3 gusting 6 21.7
2015-May-04 10:40 155 4 gusting 7 22.2
2015-May-04 10:30 162 4 gusting 8 23.3
2015-May-04 10:20 161 3 gusting 7 23.3
2015-May-04 10:10 179 3 gusting 6 23.3
2015-May-04 10:00 129 2 gusting 7 23.3
2015-May-04 09:50 156 2 gusting 6 23.9
2015-May-04 09:40 161 3 gusting 6 23.9
2015-May-04 09:30 139 3 gusting 6 24.4
2015-May-04 09:20 109 1 gusting 6 23.9
2015-May-04 09:10 110 0 gusting 4 23.9
2015-May-04 09:00 169 0 gusting 3 23.3
2015-May-04 08:50 155 0 gusting 3 22.8
2015-May-04 08:40 204 21.7
2015-May-04 08:30 284 0 gusting 2 20.0
2015-May-04 08:20 284 0 gusting 2 19.4
2015-May-04 08:10 275 0 gusting 2 19.4
2015-May-04 08:00 255 0 gusting 2 18.9
2015-May-04 07:50 248 0 gusting 2 18.9
2015-May-04 07:40 252 0 gusting 1 18.9
2015-May-04 07:30 253 1 gusting 2 18.3
2015-May-04 07:20 247 18.3
2015-May-04 07:10 18.9
2015-May-04 07:00 18.3
2015-May-04 06:50 18.3
2015-May-04 06:40 18.3
2015-May-04 06:30 17.8
2015-May-04 06:20 219 0 gusting 1 17.8
2015-May-04 06:10 063 1 gusting 6 17.8
2015-May-04 06:00 061 0 gusting 4 17.2
2015-May-04 05:50 092 0 gusting 2 17.2
2015-May-04 05:40 060 0 gusting 2 17.8
2015-May-04 05:30 295 17.2
2015-May-04 05:20 290 17.2
2015-May-04 05:10 281 0 gusting 2 17.2
2015-May-04 05:00 297 17.2